Time;durP1;ratioP1;P1;durP2;ratioP2;P2;SDS_P1;SDS_P2;PMS_P1;PMS_P2;Temp;Humidity;BMP_temperature;BMP_pressure;BME280_temperature;BME280_humidity;BME280_pressure;Samples;Min_cycle;Max_cycle;Signal;HPM_P1;HPM_P2
2023/08/23 00:01:17;;;;;;;5.70;3.43;;;;;;;;;;10373757;28;20022;-70
2023/08/23 00:06:18;;;;;;;4.67;2.80;;;;;;;;;;10372928;28;20252;-70
2023/08/23 00:11:18;;;;;;;5.93;3.27;;;;;;;;;;10372981;28;20026;-70
2023/08/23 00:16:18;;;;;;;4.07;3.00;;;;;;;;;;10372667;28;20022;-70
2023/08/23 00:21:19;;;;;;;3.40;2.80;;;;;;;;;;10372524;28;20501;-69
2023/08/23 00:26:19;;;;;;;4.53;3.23;;;;;;;;;;10372213;28;20481;-68
2023/08/23 00:31:19;;;;;;;3.70;3.40;;;;;;;;;;10371663;28;20034;-68
2023/08/23 00:36:20;;;;;;;6.50;2.93;;;;;;;;;;10372336;28;20038;-68
2023/08/23 00:41:20;;;;;;;3.20;2.70;;;;;;;;;;10372136;28;20434;-66
2023/08/23 00:46:21;;;;;;;3.40;2.78;;;;;;;;;;10371107;28;20038;-65
2023/08/23 00:51:21;;;;;;;5.43;3.30;;;;;;;;;;10371190;28;20030;-68
2023/08/23 00:56:21;;;;;;;3.57;2.70;;;;;;;;;;10369258;28;20108;-72
2023/08/23 01:01:22;;;;;;;4.07;3.23;;;;;;;;;;10370957;28;20026;-69
2023/08/23 01:06:46;;;;;;;3.47;2.40;;;;;;;;;;10370529;28;20024;-65
2023/08/23 01:12:20;;;;;;;3.85;2.95;;;;;;;;;;10370316;28;20497;-70
2023/08/23 01:17:21;;;;;;;4.32;2.78;;;;;;;;;;10370211;28;20037;-72
2023/08/23 01:22:22;;;;;;;4.30;3.22;;;;;;;;;;10370988;28;20125;-71
2023/08/23 01:27:23;;;;;;;4.05;2.63;;;;;;;;;;10369769;28;20034;-69
2023/08/23 01:32:35;;;;;;;4.43;2.65;;;;;;;;;;10368892;28;20079;-65
2023/08/23 01:37:39;;;;;;;9.60;2.78;;;;;;;;;;10368877;28;20045;-65
2023/08/23 01:42:40;;;;;;;2.83;2.63;;;;;;;;;;10368354;28;20038;-65
2023/08/23 01:47:40;;;;;;;2.85;2.55;;;;;;;;;;10367886;28;20018;-65
2023/08/23 01:52:41;;;;;;;3.43;3.00;;;;;;;;;;10368452;28;20025;-65
2023/08/23 01:57:41;;;;;;;4.53;2.70;;;;;;;;;;10368519;28;20459;-69
2023/08/23 02:02:42;;;;;;;3.95;2.60;;;;;;;;;;10368777;28;20022;-65
2023/08/23 02:07:42;;;;;;;4.93;2.83;;;;;;;;;;10368718;28;20424;-70
2023/08/23 02:12:42;;;;;;;4.00;2.70;;;;;;;;;;10368583;28;20037;-70
2023/08/23 02:17:43;;;;;;;4.97;2.50;;;;;;;;;;10367687;28;20493;-68
2023/08/23 02:22:43;;;;;;;3.80;2.80;;;;;;;;;;10367943;28;20531;-66
2023/08/23 02:27:43;;;;;;;3.17;2.90;;;;;;;;;;10367772;28;20045;-69
2023/08/23 02:32:44;;;;;;;3.07;2.80;;;;;;;;;;10367750;28;20118;-71
2023/08/23 02:37:44;;;;;;;2.90;2.60;;;;;;;;;;10367158;28;20053;-72
2023/08/23 02:42:44;;;;;;;2.93;2.63;;;;;;;;;;10370538;28;20068;-71
2023/08/23 02:47:45;;;;;;;7.23;2.73;;;;;;;;;;10376428;28;20113;-69
2023/08/23 02:52:45;;;;;;;3.60;2.77;;;;;;;;;;10376358;28;20034;-68
2023/08/23 02:57:45;;;;;;;5.90;2.40;;;;;;;;;;10375398;28;20447;-69
2023/08/23 03:02:46;;;;;;;7.20;2.70;;;;;;;;;;10375100;28;20060;-71
2023/08/23 03:07:46;;;;;;;2.90;2.70;;;;;;;;;;10375053;28;20026;-66
2023/08/23 03:12:47;;;;;;;2.67;2.42;;;;;;;;;;10374736;28;20038;-71
2023/08/23 03:17:47;;;;;;;3.80;2.60;;;;;;;;;;10374475;28;20552;-66
2023/08/23 03:22:47;;;;;;;3.23;2.70;;;;;;;;;;10374570;28;20030;-65
2023/08/23 03:27:54;;;;;;;2.70;2.47;;;;;;;;;;10374105;28;20041;-67
2023/08/23 03:32:54;;;;;;;2.83;2.40;;;;;;;;;;10374098;28;20069;-67
2023/08/23 03:37:54;;;;;;;3.00;2.70;;;;;;;;;;10374125;28;20042;-67
2023/08/23 03:42:55;;;;;;;3.17;2.80;;;;;;;;;;10373606;28;20029;-67
2023/08/23 03:47:55;;;;;;;4.90;2.50;;;;;;;;;;10373189;28;20115;-67
2023/08/23 03:52:56;;;;;;;3.03;2.47;;;;;;;;;;10372846;28;20026;-67
2023/08/23 03:57:56;;;;;;;2.77;2.53;;;;;;;;;;10373107;28;20117;-69
2023/08/23 04:02:56;;;;;;;2.50;2.30;;;;;;;;;;10372930;28;20026;-69
2023/08/23 04:07:57;;;;;;;4.20;2.43;;;;;;;;;;10372919;28;20041;-69
2023/08/23 04:12:57;;;;;;;4.13;2.60;;;;;;;;;;10372769;28;20033;-66
2023/08/23 04:17:57;;;;;;;2.83;2.60;;;;;;;;;;10372552;28;20540;-65
2023/08/23 04:22:58;;;;;;;3.57;2.50;;;;;;;;;;10372144;28;20506;-67
2023/08/23 04:27:58;;;;;;;4.87;2.43;;;;;;;;;;10372127;28;20105;-69
2023/08/23 04:32:58;;;;;;;3.90;2.70;;;;;;;;;;10372143;28;20530;-68
2023/08/23 04:37:59;;;;;;;2.60;2.40;;;;;;;;;;10371589;28;20472;-69
2023/08/23 04:42:59;;;;;;;4.00;2.67;;;;;;;;;;10371735;28;20036;-68
2023/08/23 04:47:59;;;;;;;5.27;2.50;;;;;;;;;;10371567;28;20032;-64
2023/08/23 04:53:00;;;;;;;7.33;2.63;;;;;;;;;;10371184;28;20033;-64
2023/08/23 04:58:00;;;;;;;4.90;2.37;;;;;;;;;;10370552;28;20037;-69
2023/08/23 05:03:01;;;;;;;21.83;2.80;;;;;;;;;;10370741;28;20030;-66
2023/08/23 05:08:02;;;;;;;14.35;2.47;;;;;;;;;;10368318;28;20121;-66
2023/08/23 05:13:04;;;;;;;3.88;2.40;;;;;;;;;;10370124;28;20133;-68
2023/08/23 05:18:05;;;;;;;3.78;2.70;;;;;;;;;;10370773;28;20033;-67
2023/08/23 05:23:05;;;;;;;4.57;2.67;;;;;;;;;;10369871;28;20026;-71
2023/08/23 05:28:05;;;;;;;3.58;2.30;;;;;;;;;;10369606;28;20083;-71
2023/08/23 05:33:08;;;;;;;2.73;2.10;;;;;;;;;;10370034;28;20028;-71
2023/08/23 05:38:09;;;;;;;14.15;3.72;;;;;;;;;;10381676;23;20156;-62
2023/08/23 05:43:10;;;;;;;7.82;3.92;;;;;;;;;;10369397;28;20440;-63
2023/08/23 05:48:11;;;;;;;6.18;4.70;;;;;;;;;;10369288;28;20109;-63
2023/08/23 05:53:18;;;;;;;5.68;4.95;;;;;;;;;;10368954;28;20060;-63
2023/08/23 05:58:18;;;;;;;10.00;5.60;;;;;;;;;;10368880;28;20018;-63
2023/08/23 06:03:19;;;;;;;8.20;5.15;;;;;;;;;;10369003;28;20030;-63
2023/08/23 06:08:19;;;;;;;7.22;5.80;;;;;;;;;;10368636;28;20371;-63
2023/08/23 06:13:20;;;;;;;11.93;5.82;;;;;;;;;;10368496;28;20059;-63
2023/08/23 06:18:21;;;;;;;14.35;6.10;;;;;;;;;;10368250;28;20069;-64
2023/08/23 06:23:21;;;;;;;10.63;5.80;;;;;;;;;;10367269;28;20105;-63
2023/08/23 06:28:22;;;;;;;9.30;6.43;;;;;;;;;;10365301;28;20537;-63
2023/08/23 06:33:22;;;;;;;11.50;5.90;;;;;;;;;;10367422;28;20092;-62
2023/08/23 06:38:22;;;;;;;6.40;4.80;;;;;;;;;;10368359;28;20212;-63
2023/08/23 06:43:26;;;;;;;8.70;5.60;;;;;;;;;;10368091;28;20757;-63
2023/08/23 06:48:26;;;;;;;8.57;5.93;;;;;;;;;;10367602;28;20030;-62
2023/08/23 06:53:27;;;;;;;6.30;5.60;;;;;;;;;;10367485;28;20103;-62
2023/08/23 06:58:27;;;;;;;10.40;5.40;;;;;;;;;;10367904;28;20033;-62
2023/08/23 07:03:27;;;;;;;13.87;5.57;;;;;;;;;;10367905;28;20538;-62
2023/08/23 07:08:28;;;;;;;6.97;5.17;;;;;;;;;;10367195;28;20474;-62
2023/08/23 07:13:28;;;;;;;8.27;5.50;;;;;;;;;;10367594;28;20045;-62
2023/08/23 07:18:29;;;;;;;7.07;5.50;;;;;;;;;;10367051;28;20084;-62
2023/08/23 07:23:29;;;;;;;6.38;5.53;;;;;;;;;;10367529;28;20080;-62
2023/08/23 07:28:30;;;;;;;7.37;5.43;;;;;;;;;;10369630;28;20028;-62
2023/08/23 07:33:30;;;;;;;7.97;5.43;;;;;;;;;;10374902;28;20470;-62
2023/08/23 07:38:33;;;;;;;9.67;6.10;;;;;;;;;;10374995;28;20046;-63
2023/08/23 07:43:34;;;;;;;8.55;5.63;;;;;;;;;;10373944;28;20455;-63
2023/08/23 07:48:34;;;;;;;6.67;5.03;;;;;;;;;;10374457;28;20026;-63
2023/08/23 07:53:35;;;;;;;7.23;5.27;;;;;;;;;;10373548;28;20405;-62
2023/08/23 07:58:38;;;;;;;9.77;5.82;;;;;;;;;;10374267;28;20033;-63
2023/08/23 08:03:39;;;;;;;8.18;5.20;;;;;;;;;;10373784;28;20022;-62
2023/08/23 08:20:32;;;;;;;6.17;5.23;;;;;;;;;;10373090;28;20528;-62
2023/08/23 08:25:32;;;;;;;6.43;5.17;;;;;;;;;;10372304;28;20089;-62
2023/08/23 08:30:33;;;;;;;5.20;4.70;;;;;;;;;;10372260;28;20041;-62
2023/08/23 08:35:33;;;;;;;6.43;4.40;;;;;;;;;;10371794;28;20044;-62
2023/08/23 08:40:35;;;;;;;6.50;4.70;;;;;;;;;;10370616;28;20029;-62
2023/08/23 08:45:37;;;;;;;5.85;4.85;;;;;;;;;;10372049;28;20105;-63
2023/08/23 08:50:40;;;;;;;5.53;4.80;;;;;;;;;;10371328;28;20030;-63
2023/08/23 08:55:42;;;;;;;6.00;4.82;;;;;;;;;;10371804;28;20026;-62
2023/08/23 09:00:43;;;;;;;5.40;4.72;;;;;;;;;;10371049;28;20419;-62
2023/08/23 09:05:45;;;;;;;7.00;5.20;;;;;;;;;;10369642;28;20113;-63
2023/08/23 09:10:46;;;;;;;6.63;4.78;;;;;;;;;;10369448;28;20029;-62
2023/08/23 09:15:47;;;;;;;6.38;4.80;;;;;;;;;;10370395;28;20117;-62
2023/08/23 09:20:47;;;;;;;5.15;4.72;;;;;;;;;;10370460;28;20029;-63
2023/08/23 09:25:48;;;;;;;5.33;4.70;;;;;;;;;;10370109;28;20026;-62
2023/08/23 09:30:49;;;;;;;5.57;4.60;;;;;;;;;;10369121;28;20029;-63
2023/08/23 09:35:49;;;;;;;5.53;4.78;;;;;;;;;;10369504;28;20396;-62
2023/08/23 09:40:50;;;;;;;5.30;4.78;;;;;;;;;;10369503;28;20029;-63
2023/08/23 09:45:50;;;;;;;6.13;4.88;;;;;;;;;;10369172;28;20030;-63
2023/08/23 09:50:52;;;;;;;5.32;4.78;;;;;;;;;;10368848;28;20038;-62
2023/08/23 09:55:53;;;;;;;7.50;4.75;;;;;;;;;;10368321;28;20033;-62
2023/08/23 10:00:55;;;;;;;6.38;5.07;;;;;;;;;;10369694;28;20384;-63
2023/08/23 10:05:55;;;;;;;6.43;5.07;;;;;;;;;;10368773;28;20026;-63
2023/08/23 10:10:55;;;;;;;5.53;5.03;;;;;;;;;;10351627;28;20421;-62
2023/08/23 10:15:56;;;;;;;6.40;4.53;;;;;;;;;;10368299;28;20966;-63
2023/08/23 10:20:57;;;;;;;5.47;4.93;;;;;;;;;;10367637;28;20469;-62
2023/08/23 10:25:57;;;;;;;8.27;4.45;;;;;;;;;;10368074;28;20516;-63
2023/08/23 10:30:58;;;;;;;6.03;4.77;;;;;;;;;;10368013;28;20109;-62
2023/08/23 10:35:59;;;;;;;6.32;4.82;;;;;;;;;;10366426;28;20475;-63
2023/08/23 10:41:01;;;;;;;5.47;4.57;;;;;;;;;;10367792;28;20053;-63
2023/08/23 10:46:03;;;;;;;6.75;5.35;;;;;;;;;;10368203;28;20041;-63
2023/08/23 10:51:03;;;;;;;5.47;4.93;;;;;;;;;;10366396;28;20033;-63
2023/08/23 10:56:04;;;;;;;5.47;4.97;;;;;;;;;;10368004;28;20109;-63
2023/08/23 11:01:05;;;;;;;5.00;4.50;;;;;;;;;;10367891;28;20117;-63
2023/08/23 11:06:05;;;;;;;5.17;4.67;;;;;;;;;;10373964;28;20025;-63
2023/08/23 11:11:05;;;;;;;5.43;4.80;;;;;;;;;;10375431;28;20033;-63
2023/08/23 11:16:06;;;;;;;6.00;4.73;;;;;;;;;;10375149;28;20040;-63
2023/08/23 11:21:06;;;;;;;5.60;5.00;;;;;;;;;;10375660;28;20038;-63
2023/08/23 11:26:07;;;;;;;4.63;4.23;;;;;;;;;;10374803;28;20037;-63
2023/08/23 11:31:08;;;;;;;5.22;4.72;;;;;;;;;;10374616;28;20409;-62
2023/08/23 11:36:09;;;;;;;5.47;4.97;;;;;;;;;;10374582;28;20042;-63
2023/08/23 11:41:09;;;;;;;5.10;4.63;;;;;;;;;;10375264;28;20387;-63
2023/08/23 11:46:10;;;;;;;5.70;5.10;;;;;;;;;;10374095;28;20053;-63
2023/08/23 11:51:11;;;;;;;6.07;5.03;;;;;;;;;;10374403;28;20632;-63
2023/08/23 11:56:11;;;;;;;5.30;4.80;;;;;;;;;;10374201;28;20029;-63
2023/08/23 12:01:11;;;;;;;6.07;4.60;;;;;;;;;;10373565;28;20428;-63
2023/08/23 12:06:12;;;;;;;5.37;4.80;;;;;;;;;;10372307;28;20124;-63
2023/08/23 12:11:12;;;;;;;5.38;4.88;;;;;;;;;;10373078;28;20390;-63
2023/08/23 12:16:13;;;;;;;7.33;4.90;;;;;;;;;;10372949;28;20029;-63
2023/08/23 12:21:13;;;;;;;5.20;4.70;;;;;;;;;;10372749;28;20520;-63
2023/08/23 12:26:14;;;;;;;5.27;4.77;;;;;;;;;;10372941;28;20059;-63
2023/08/23 12:31:16;;;;;;;5.40;4.85;;;;;;;;;;10372149;28;20463;-63
2023/08/23 12:36:16;;;;;;;4.90;4.40;;;;;;;;;;10371980;28;20485;-63
2023/08/23 12:41:16;;;;;;;5.57;4.83;;;;;;;;;;10371987;28;20033;-63
2023/08/23 12:46:17;;;;;;;4.67;4.27;;;;;;;;;;10371590;28;20448;-63
2023/08/23 12:51:17;;;;;;;5.03;4.30;;;;;;;;;;10371378;28;20026;-63
2023/08/23 12:56:17;;;;;;;5.17;4.67;;;;;;;;;;10371294;28;20030;-63
2023/08/23 13:01:18;;;;;;;5.33;4.83;;;;;;;;;;10371208;28;20183;-63
2023/08/23 13:06:19;;;;;;;7.53;4.40;;;;;;;;;;10370919;28;20037;-63
2023/08/23 13:11:19;;;;;;;6.20;4.55;;;;;;;;;;10370825;28;20033;-63
2023/08/23 13:16:19;;;;;;;5.30;4.80;;;;;;;;;;10370920;28;20418;-63
2023/08/23 13:21:20;;;;;;;7.47;4.43;;;;;;;;;;10370565;28;20788;-63
2023/08/23 13:26:20;;;;;;;5.03;4.53;;;;;;;;;;10369981;28;20492;-63
2023/08/23 13:31:24;;;;;;;5.23;4.73;;;;;;;;;;10369934;28;20026;-63
2023/08/23 13:36:24;;;;;;;7.18;4.60;;;;;;;;;;10370415;28;20046;-63
2023/08/23 13:41:24;;;;;;;4.93;4.50;;;;;;;;;;10369819;28;20496;-63
2023/08/23 13:46:25;;;;;;;4.80;4.30;;;;;;;;;;10369398;28;20176;-63
2023/08/23 13:51:25;;;;;;;6.82;4.78;;;;;;;;;;10369787;28;20393;-63
2023/08/23 13:56:26;;;;;;;5.63;4.23;;;;;;;;;;10369145;28;20057;-63
2023/08/23 14:01:26;;;;;;;8.27;4.80;;;;;;;;;;10369000;28;20030;-63
2023/08/23 14:06:26;;;;;;;4.50;4.10;;;;;;;;;;10368785;28;20444;-63
2023/08/23 14:11:30;;;;;;;8.03;4.37;;;;;;;;;;10368443;28;20468;-63
2023/08/23 14:16:31;;;;;;;4.63;4.22;;;;;;;;;;10368243;28;20037;-63
2023/08/23 14:21:31;;;;;;;5.93;4.87;;;;;;;;;;10368406;28;20030;-63
2023/08/23 14:26:31;;;;;;;4.63;4.13;;;;;;;;;;10368533;28;20026;-62
2023/08/23 14:31:32;;;;;;;5.07;4.27;;;;;;;;;;10367934;28;20056;-63
2023/08/23 14:36:33;;;;;;;5.10;4.60;;;;;;;;;;10367660;28;20129;-63
2023/08/23 14:41:33;;;;;;;5.00;4.07;;;;;;;;;;10368392;28;20303;-63
2023/08/23 14:46:33;;;;;;;6.90;4.40;;;;;;;;;;10367643;28;20033;-63
2023/08/23 14:51:34;;;;;;;4.93;4.43;;;;;;;;;;10366353;28;20443;-63
2023/08/23 14:56:34;;;;;;;5.07;4.50;;;;;;;;;;10367603;28;20394;-63
2023/08/23 15:01:34;;;;;;;5.40;4.27;;;;;;;;;;10368125;28;20026;-63
2023/08/23 15:06:35;;;;;;;4.80;4.40;;;;;;;;;;10367974;28;20026;-63
2023/08/23 15:11:35;;;;;;;4.73;4.30;;;;;;;;;;10367669;28;20030;-63
2023/08/23 15:16:35;;;;;;;4.80;4.30;;;;;;;;;;10366947;28;20460;-63
2023/08/23 15:21:36;;;;;;;4.33;3.93;;;;;;;;;;10367652;28;20454;-63
2023/08/23 15:26:36;;;;;;;8.87;4.57;;;;;;;;;;10366931;28;20489;-63
2023/08/23 15:31:36;;;;;;;4.83;4.33;;;;;;;;;;10366909;28;20474;-63
2023/08/23 15:36:37;;;;;;;5.20;4.30;;;;;;;;;;10366855;28;20053;-63
2023/08/23 15:41:37;;;;;;;6.40;4.37;;;;;;;;;;10366712;28;20385;-63
2023/08/23 15:46:38;;;;;;;4.70;4.20;;;;;;;;;;10366442;28;20521;-63
2023/08/23 15:51:39;;;;;;;4.55;4.15;;;;;;;;;;10371694;28;20030;-63
2023/08/23 15:56:39;;;;;;;5.00;4.40;;;;;;;;;;10373655;28;20022;-63
2023/08/23 16:01:40;;;;;;;5.10;4.60;;;;;;;;;;10373881;28;20038;-63
2023/08/23 16:06:40;;;;;;;4.60;4.15;;;;;;;;;;10373390;28;20397;-63
2023/08/23 16:11:40;;;;;;;4.70;4.30;;;;;;;;;;10371834;28;20030;-63
2023/08/23 16:16:41;;;;;;;5.03;4.57;;;;;;;;;;10373288;28;20018;-63
2023/08/23 16:21:41;;;;;;;5.40;4.60;;;;;;;;;;10373391;28;20378;-63
2023/08/23 16:26:42;;;;;;;6.15;4.40;;;;;;;;;;10372381;28;20529;-63
2023/08/23 16:31:42;;;;;;;4.70;4.20;;;;;;;;;;10372095;28;20116;-63
2023/08/23 16:36:43;;;;;;;5.40;4.90;;;;;;;;;;10371674;28;20038;-63
2023/08/23 16:41:43;;;;;;;5.05;4.43;;;;;;;;;;10372246;28;20117;-63
2023/08/23 16:46:44;;;;;;;5.53;4.60;;;;;;;;;;10371588;28;20022;-63
2023/08/23 16:51:44;;;;;;;5.50;4.30;;;;;;;;;;10371084;28;20087;-64
2023/08/23 16:56:44;;;;;;;5.73;4.60;;;;;;;;;;10367481;28;20401;-63
2023/08/23 17:01:45;;;;;;;6.00;4.50;;;;;;;;;;10369804;28;20378;-63
2023/08/23 17:06:47;;;;;;;4.63;4.23;;;;;;;;;;10371738;28;20460;-63
2023/08/23 17:11:47;;;;;;;5.07;4.57;;;;;;;;;;10371402;28;20477;-63
2023/08/23 17:16:47;;;;;;;7.93;4.57;;;;;;;;;;10370045;28;20030;-63
2023/08/23 17:21:48;;;;;;;6.23;4.20;;;;;;;;;;10370121;28;20117;-63
2023/08/23 17:26:48;;;;;;;4.63;4.22;;;;;;;;;;10370289;28;20033;-63
2023/08/23 17:31:49;;;;;;;5.00;4.20;;;;;;;;;;10370304;28;20096;-63
2023/08/23 17:36:49;;;;;;;7.80;4.50;;;;;;;;;;10369572;28;20464;-63
2023/08/23 17:41:49;;;;;;;5.57;4.85;;;;;;;;;;10369552;28;20030;-64
2023/08/23 17:46:50;;;;;;;5.93;4.60;;;;;;;;;;10369640;28;20477;-64
2023/08/23 17:51:50;;;;;;;7.07;4.97;;;;;;;;;;10369979;28;20459;-64
2023/08/23 17:56:51;;;;;;;5.20;4.47;;;;;;;;;;10369414;28;20040;-63
2023/08/23 18:01:52;;;;;;;6.07;5.47;;;;;;;;;;10369347;28;20038;-63
2023/08/23 18:06:53;;;;;;;6.65;5.93;;;;;;;;;;10369180;28;20037;-62
2023/08/23 18:11:53;;;;;;;19.77;7.10;;;;;;;;;;10368639;28;20029;-63
2023/08/23 18:16:54;;;;;;;19.23;7.37;;;;;;;;;;10368401;28;20037;-63
2023/08/23 18:21:54;;;;;;;16.50;6.87;;;;;;;;;;10367905;28;20440;-63
2023/08/23 18:26:54;;;;;;;13.23;7.80;;;;;;;;;;10368536;28;20034;-63
2023/08/23 18:31:55;;;;;;;23.27;8.37;;;;;;;;;;10368894;28;20089;-63
2023/08/23 18:36:55;;;;;;;23.17;9.10;;;;;;;;;;10368172;28;20050;-61
2023/08/23 18:41:55;;;;;;;13.27;8.70;;;;;;;;;;10368028;28;20121;-62
2023/08/23 18:46:56;;;;;;;15.80;8.93;;;;;;;;;;10368080;28;20026;-62
2023/08/23 18:51:56;;;;;;;15.20;8.57;;;;;;;;;;10367976;28;20050;-62
2023/08/23 18:56:57;;;;;;;13.47;9.33;;;;;;;;;;10367780;28;20113;-61
2023/08/23 19:01:57;;;;;;;12.65;8.77;;;;;;;;;;10367714;28;20060;-62
2023/08/23 19:06:57;;;;;;;12.90;8.70;;;;;;;;;;10368188;28;20025;-62
2023/08/23 19:11:58;;;;;;;12.67;8.63;;;;;;;;;;10367474;28;20064;-62
2023/08/23 19:16:58;;;;;;;14.63;9.20;;;;;;;;;;10367843;28;20033;-62
2023/08/23 19:21:59;;;;;;;15.05;8.90;;;;;;;;;;10367169;28;20030;-62
2023/08/23 19:27:01;;;;;;;12.75;9.32;;;;;;;;;;10373421;28;20022;-62
2023/08/23 19:32:03;;;;;;;11.05;8.68;;;;;;;;;;10374985;28;20057;-63
2023/08/23 19:37:03;;;;;;;11.55;8.77;;;;;;;;;;10374490;28;20072;-63
2023/08/23 19:42:04;;;;;;;18.23;10.10;;;;;;;;;;10373068;28;20563;-62
2023/08/23 19:47:04;;;;;;;13.75;8.57;;;;;;;;;;10374128;28;20026;-62
2023/08/23 19:52:05;;;;;;;10.48;8.43;;;;;;;;;;10374527;28;20037;-63
2023/08/23 19:57:06;;;;;;;11.75;8.35;;;;;;;;;;10374346;28;20484;-62
2023/08/23 20:02:06;;;;;;;11.13;7.93;;;;;;;;;;10373595;28;20018;-62
2023/08/23 20:07:06;;;;;;;14.57;8.20;;;;;;;;;;10373049;28;20041;-63
2023/08/23 20:12:07;;;;;;;15.07;9.33;;;;;;;;;;10373128;28;20060;-63
2023/08/23 20:17:07;;;;;;;10.67;8.60;;;;;;;;;;10372102;28;20053;-62
2023/08/23 20:22:08;;;;;;;10.63;8.40;;;;;;;;;;10371665;28;20362;-63
2023/08/23 20:27:08;;;;;;;10.73;8.07;;;;;;;;;;10372476;28;20486;-62
2023/08/23 20:32:08;;;;;;;12.03;8.43;;;;;;;;;;10371927;28;20049;-62
2023/08/23 20:37:09;;;;;;;12.90;8.57;;;;;;;;;;10371919;28;20092;-62
2023/08/23 20:42:12;;;;;;;11.95;8.57;;;;;;;;;;10371195;28;20061;-62
2023/08/23 20:47:13;;;;;;;11.88;7.90;;;;;;;;;;10370718;28;20047;-62
2023/08/23 20:52:13;;;;;;;10.85;7.25;;;;;;;;;;10371030;28;20033;-62
2023/08/23 20:57:14;;;;;;;9.70;7.50;;;;;;;;;;10371439;28;20022;-60
2023/08/23 21:02:14;;;;;;;11.07;7.70;;;;;;;;;;10370589;28;20022;-63
2023/08/23 21:07:14;;;;;;;9.40;7.60;;;;;;;;;;10370407;28;20409;-63
2023/08/23 21:12:15;;;;;;;11.47;8.00;;;;;;;;;;10369973;28;20511;-62
2023/08/23 21:17:16;;;;;;;11.73;7.97;;;;;;;;;;10370161;28;20462;-62
2023/08/23 21:22:17;;;;;;;10.48;8.05;;;;;;;;;;10370349;28;20045;-63
2023/08/23 21:27:17;;;;;;;10.07;7.40;;;;;;;;;;10369797;28;20374;-63
2023/08/23 21:32:17;;;;;;;7.90;7.10;;;;;;;;;;10369455;28;20044;-62
2023/08/23 21:37:18;;;;;;;9.90;7.20;;;;;;;;;;10368881;28;20038;-63
2023/08/23 21:42:18;;;;;;;9.30;7.27;;;;;;;;;;10369291;28;20034;-63
2023/08/23 21:47:18;;;;;;;11.07;6.97;;;;;;;;;;10368496;28;20029;-62
2023/08/23 21:52:19;;;;;;;8.10;7.20;;;;;;;;;;10369496;28;20034;-63
2023/08/23 21:57:19;;;;;;;7.75;6.45;;;;;;;;;;10369616;28;20125;-62
2023/08/23 22:02:20;;;;;;;7.40;6.23;;;;;;;;;;10369002;28;20067;-62
2023/08/23 22:07:20;;;;;;;8.77;6.60;;;;;;;;;;10368687;28;20121;-62
2023/08/23 22:12:20;;;;;;;8.10;6.43;;;;;;;;;;10368290;28;20449;-60
2023/08/23 22:17:21;;;;;;;7.60;6.80;;;;;;;;;;10368625;28;20515;-62
2023/08/23 22:22:21;;;;;;;11.90;5.90;;;;;;;;;;10368103;28;20481;-62
2023/08/23 22:27:21;;;;;;;6.60;5.57;;;;;;;;;;10368191;28;20462;-61
2023/08/23 22:32:22;;;;;;;6.43;5.73;;;;;;;;;;10367948;28;20570;-61
2023/08/23 22:37:22;;;;;;;6.83;5.67;;;;;;;;;;10367669;28;20073;-61
2023/08/23 22:42:27;;;;;;;5.87;5.27;;;;;;;;;;10368095;28;20040;-62
2023/08/23 22:47:27;;;;;;;6.43;5.20;;;;;;;;;;10368429;28;20044;-61
2023/08/23 22:52:28;;;;;;;8.27;5.73;;;;;;;;;;10367744;28;20477;-61
2023/08/23 22:57:28;;;;;;;6.55;5.78;;;;;;;;;;10367776;28;20030;-62
2023/08/23 23:02:29;;;;;;;6.80;6.03;;;;;;;;;;10375250;28;20026;-61
2023/08/23 23:07:29;;;;;;;7.90;5.43;;;;;;;;;;10376262;28;20125;-61
2023/08/23 23:12:29;;;;;;;7.27;5.50;;;;;;;;;;10375990;28;20026;-60
2023/08/23 23:17:30;;;;;;;6.57;5.77;;;;;;;;;;10375787;28;20470;-60
2023/08/23 23:22:30;;;;;;;6.00;5.40;;;;;;;;;;10374483;28;20451;-61
2023/08/23 23:27:31;;;;;;;8.83;5.60;;;;;;;;;;10374957;28;20026;-61
2023/08/23 23:32:31;;;;;;;6.93;5.53;;;;;;;;;;10375380;28;20104;-61
2023/08/23 23:37:32;;;;;;;5.90;4.95;;;;;;;;;;10374453;28;20596;-62
2023/08/23 23:42:32;;;;;;;6.63;5.83;;;;;;;;;;10375009;28;20029;-64
2023/08/23 23:47:32;;;;;;;5.57;5.07;;;;;;;;;;10374277;28;20091;-63
2023/08/23 23:52:33;;;;;;;8.07;4.83;;;;;;;;;;10374614;28;20045;-62
2023/08/23 23:57:33;;;;;;;5.83;5.27;;;;;;;;;;10373432;28;20125;-62
